sensor_id;sensor_type;location;lat;lon;timestamp;P1;durP1;ratioP1;P2;durP2;ratioP2
42682;SDS011;28293;50.930;3.464;2022-08-19T00:02:04;35.28;;;29.25;;
42682;SDS011;28293;50.930;3.464;2022-08-19T00:04:32;33.28;;;27.73;;
42682;SDS011;28293;50.930;3.464;2022-08-19T00:07:01;31.75;;;26.85;;
42682;SDS011;28293;50.930;3.464;2022-08-19T00:09:28;33.03;;;27.88;;
42682;SDS011;28293;50.930;3.464;2022-08-19T00:11:54;34.72;;;28.35;;
42682;SDS011;28293;50.930;3.464;2022-08-19T00:14:21;34.25;;;27.17;;
42682;SDS011;28293;50.930;3.464;2022-08-19T00:16:48;35.58;;;27.58;;
42682;SDS011;28293;50.930;3.464;2022-08-19T00:19:16;32.42;;;26.20;;
42682;SDS011;28293;50.930;3.464;2022-08-19T00:21:42;34.30;;;27.38;;
42682;SDS011;28293;50.930;3.464;2022-08-19T00:24:09;34.47;;;27.65;;
42682;SDS011;28293;50.930;3.464;2022-08-19T00:26:36;34.45;;;26.30;;
42682;SDS011;28293;50.930;3.464;2022-08-19T00:29:03;29.85;;;25.27;;
42682;SDS011;28293;50.930;3.464;2022-08-19T00:31:30;33.30;;;26.90;;
42682;SDS011;28293;50.930;3.464;2022-08-19T00:33:56;33.08;;;27.33;;
42682;SDS011;28293;50.930;3.464;2022-08-19T00:36:22;31.48;;;24.48;;
42682;SDS011;28293;50.930;3.464;2022-08-19T00:38:48;35.80;;;28.23;;
42682;SDS011;28293;50.930;3.464;2022-08-19T00:41:15;33.80;;;27.85;;
42682;SDS011;28293;50.930;3.464;2022-08-19T00:43:55;33.38;;;26.48;;
42682;SDS011;28293;50.930;3.464;2022-08-19T00:46:34;38.05;;;29.10;;
42682;SDS011;28293;50.930;3.464;2022-08-19T00:49:02;30.83;;;26.13;;
42682;SDS011;28293;50.930;3.464;2022-08-19T00:51:52;33.60;;;25.70;;
42682;SDS011;28293;50.930;3.464;2022-08-19T00:54:24;34.58;;;26.25;;
42682;SDS011;28293;50.930;3.464;2022-08-19T00:56:50;36.80;;;28.02;;
42682;SDS011;28293;50.930;3.464;2022-08-19T00:59:16;35.03;;;26.95;;
42682;SDS011;28293;50.930;3.464;2022-08-19T01:01:44;35.78;;;27.05;;
42682;SDS011;28293;50.930;3.464;2022-08-19T01:04:10;38.83;;;27.88;;
42682;SDS011;28293;50.930;3.464;2022-08-19T01:06:37;37.28;;;27.27;;
42682;SDS011;28293;50.930;3.464;2022-08-19T01:09:04;35.33;;;27.13;;
42682;SDS011;28293;50.930;3.464;2022-08-19T01:11:31;32.63;;;26.17;;
42682;SDS011;28293;50.930;3.464;2022-08-19T01:14:00;32.88;;;25.02;;
42682;SDS011;28293;50.930;3.464;2022-08-19T01:16:26;34.08;;;25.23;;
42682;SDS011;28293;50.930;3.464;2022-08-19T01:18:53;31.42;;;25.13;;
42682;SDS011;28293;50.930;3.464;2022-08-19T01:21:22;34.17;;;26.20;;
42682;SDS011;28293;50.930;3.464;2022-08-19T01:24:05;33.50;;;24.95;;
42682;SDS011;28293;50.930;3.464;2022-08-19T01:26:31;36.42;;;26.38;;
42682;SDS011;28293;50.930;3.464;2022-08-19T01:29:03;34.55;;;25.77;;
42682;SDS011;28293;50.930;3.464;2022-08-19T01:31:29;34.25;;;26.33;;
42682;SDS011;28293;50.930;3.464;2022-08-19T01:33:57;32.00;;;25.40;;
42682;SDS011;28293;50.930;3.464;2022-08-19T01:39:03;37.97;;;25.25;;
42682;SDS011;28293;50.930;3.464;2022-08-19T01:41:31;34.63;;;25.20;;
42682;SDS011;28293;50.930;3.464;2022-08-19T01:43:58;30.83;;;23.65;;
42682;SDS011;28293;50.930;3.464;2022-08-19T01:46:26;33.88;;;24.45;;
42682;SDS011;28293;50.930;3.464;2022-08-19T01:48:51;32.50;;;24.75;;
42682;SDS011;28293;50.930;3.464;2022-08-19T01:51:17;33.28;;;24.70;;
42682;SDS011;28293;50.930;3.464;2022-08-19T01:53:45;32.38;;;25.08;;
42682;SDS011;28293;50.930;3.464;2022-08-19T01:56:13;29.10;;;23.10;;
42682;SDS011;28293;50.930;3.464;2022-08-19T01:58:40;35.58;;;24.55;;
42682;SDS011;28293;50.930;3.464;2022-08-19T02:01:11;39.70;;;26.02;;
42682;SDS011;28293;50.930;3.464;2022-08-19T02:03:37;32.47;;;25.73;;
42682;SDS011;28293;50.930;3.464;2022-08-19T02:06:03;34.90;;;25.17;;
42682;SDS011;28293;50.930;3.464;2022-08-19T02:08:30;35.88;;;26.10;;
42682;SDS011;28293;50.930;3.464;2022-08-19T02:10:57;35.08;;;25.20;;
42682;SDS011;28293;50.930;3.464;2022-08-19T02:13:23;32.92;;;24.85;;
42682;SDS011;28293;50.930;3.464;2022-08-19T02:15:49;32.33;;;25.58;;
42682;SDS011;28293;50.930;3.464;2022-08-19T02:18:15;34.55;;;26.05;;
42682;SDS011;28293;50.930;3.464;2022-08-19T02:20:41;31.52;;;24.20;;
42682;SDS011;28293;50.930;3.464;2022-08-19T02:23:08;36.13;;;24.92;;
42682;SDS011;28293;50.930;3.464;2022-08-19T02:25:36;34.47;;;24.90;;
42682;SDS011;28293;50.930;3.464;2022-08-19T02:28:02;31.92;;;24.40;;
42682;SDS011;28293;50.930;3.464;2022-08-19T02:30:28;34.15;;;25.10;;
42682;SDS011;28293;50.930;3.464;2022-08-19T02:32:54;33.40;;;25.33;;
42682;SDS011;28293;50.930;3.464;2022-08-19T02:35:19;29.95;;;24.02;;
42682;SDS011;28293;50.930;3.464;2022-08-19T02:37:46;34.15;;;25.08;;
42682;SDS011;28293;50.930;3.464;2022-08-19T02:40:31;28.80;;;22.98;;
42682;SDS011;28293;50.930;3.464;2022-08-19T02:43:07;31.75;;;22.33;;
42682;SDS011;28293;50.930;3.464;2022-08-19T02:45:34;29.80;;;22.80;;
42682;SDS011;28293;50.930;3.464;2022-08-19T02:48:01;31.63;;;23.33;;
42682;SDS011;28293;50.930;3.464;2022-08-19T02:50:27;30.90;;;21.77;;
42682;SDS011;28293;50.930;3.464;2022-08-19T02:52:52;30.08;;;21.55;;
42682;SDS011;28293;50.930;3.464;2022-08-19T02:55:18;32.03;;;21.95;;
42682;SDS011;28293;50.930;3.464;2022-08-19T02:57:44;26.75;;;21.50;;
42682;SDS011;28293;50.930;3.464;2022-08-19T03:00:10;29.75;;;21.10;;
42682;SDS011;28293;50.930;3.464;2022-08-19T03:02:39;29.08;;;22.27;;
42682;SDS011;28293;50.930;3.464;2022-08-19T03:05:06;25.95;;;20.95;;
42682;SDS011;28293;50.930;3.464;2022-08-19T03:07:32;30.20;;;21.60;;
42682;SDS011;28293;50.930;3.464;2022-08-19T03:09:58;26.92;;;20.98;;
42682;SDS011;28293;50.930;3.464;2022-08-19T03:12:24;26.08;;;20.50;;
42682;SDS011;28293;50.930;3.464;2022-08-19T03:14:49;28.92;;;22.17;;
42682;SDS011;28293;50.930;3.464;2022-08-19T03:17:16;29.33;;;21.55;;
42682;SDS011;28293;50.930;3.464;2022-08-19T03:19:42;30.52;;;21.90;;
42682;SDS011;28293;50.930;3.464;2022-08-19T03:22:08;29.75;;;21.13;;
42682;SDS011;28293;50.930;3.464;2022-08-19T03:24:34;27.85;;;20.35;;
42682;SDS011;28293;50.930;3.464;2022-08-19T03:27:00;28.85;;;20.13;;
42682;SDS011;28293;50.930;3.464;2022-08-19T03:29:26;23.92;;;18.88;;
42682;SDS011;28293;50.930;3.464;2022-08-19T03:31:54;29.17;;;20.13;;
42682;SDS011;28293;50.930;3.464;2022-08-19T03:34:26;32.22;;;20.90;;
42682;SDS011;28293;50.930;3.464;2022-08-19T03:36:55;28.50;;;19.60;;
42682;SDS011;28293;50.930;3.464;2022-08-19T03:39:23;28.08;;;19.90;;
42682;SDS011;28293;50.930;3.464;2022-08-19T03:41:51;27.55;;;21.38;;
42682;SDS011;28293;50.930;3.464;2022-08-19T03:44:19;26.67;;;19.80;;
42682;SDS011;28293;50.930;3.464;2022-08-19T03:46:51;27.40;;;19.45;;
42682;SDS011;28293;50.930;3.464;2022-08-19T03:49:20;28.98;;;20.10;;
42682;SDS011;28293;50.930;3.464;2022-08-19T03:51:48;24.73;;;19.00;;
42682;SDS011;28293;50.930;3.464;2022-08-19T03:54:15;27.67;;;19.90;;
42682;SDS011;28293;50.930;3.464;2022-08-19T03:56:44;27.88;;;19.27;;
42682;SDS011;28293;50.930;3.464;2022-08-19T03:59:13;25.77;;;18.38;;
42682;SDS011;28293;50.930;3.464;2022-08-19T04:01:41;27.00;;;19.38;;
42682;SDS011;28293;50.930;3.464;2022-08-19T04:04:07;24.85;;;18.40;;
42682;SDS011;28293;50.930;3.464;2022-08-19T04:06:34;27.27;;;18.38;;
42682;SDS011;28293;50.930;3.464;2022-08-19T04:09:02;24.13;;;17.80;;
42682;SDS011;28293;50.930;3.464;2022-08-19T04:11:31;25.17;;;18.17;;
42682;SDS011;28293;50.930;3.464;2022-08-19T04:13:59;25.23;;;18.63;;
42682;SDS011;28293;50.930;3.464;2022-08-19T04:16:26;25.38;;;18.05;;
42682;SDS011;28293;50.930;3.464;2022-08-19T04:18:56;24.08;;;17.73;;
42682;SDS011;28293;50.930;3.464;2022-08-19T04:21:25;26.02;;;19.63;;
42682;SDS011;28293;50.930;3.464;2022-08-19T04:23:53;24.70;;;18.23;;
42682;SDS011;28293;50.930;3.464;2022-08-19T04:26:31;27.63;;;19.45;;
42682;SDS011;28293;50.930;3.464;2022-08-19T04:28:59;23.83;;;18.45;;
42682;SDS011;28293;50.930;3.464;2022-08-19T04:31:28;28.58;;;18.80;;
42682;SDS011;28293;50.930;3.464;2022-08-19T04:33:56;26.27;;;18.17;;
42682;SDS011;28293;50.930;3.464;2022-08-19T04:36:27;21.65;;;17.63;;
42682;SDS011;28293;50.930;3.464;2022-08-19T04:38:57;23.85;;;18.65;;
42682;SDS011;28293;50.930;3.464;2022-08-19T04:41:24;26.63;;;17.55;;
42682;SDS011;28293;50.930;3.464;2022-08-19T04:46:35;23.25;;;16.90;;
42682;SDS011;28293;50.930;3.464;2022-08-19T04:49:02;25.55;;;17.67;;
42682;SDS011;28293;50.930;3.464;2022-08-19T04:51:29;21.77;;;15.73;;
42682;SDS011;28293;50.930;3.464;2022-08-19T04:53:56;20.70;;;16.00;;
42682;SDS011;28293;50.930;3.464;2022-08-19T04:56:22;26.73;;;17.02;;
42682;SDS011;28293;50.930;3.464;2022-08-19T04:58:51;26.40;;;17.02;;
42682;SDS011;28293;50.930;3.464;2022-08-19T05:01:19;24.48;;;16.88;;
42682;SDS011;28293;50.930;3.464;2022-08-19T05:03:47;24.08;;;17.15;;
42682;SDS011;28293;50.930;3.464;2022-08-19T05:06:13;28.33;;;15.80;;
42682;SDS011;28293;50.930;3.464;2022-08-19T05:08:41;25.20;;;16.65;;
42682;SDS011;28293;50.930;3.464;2022-08-19T05:11:12;27.83;;;17.05;;
42682;SDS011;28293;50.930;3.464;2022-08-19T05:13:40;27.38;;;16.20;;
42682;SDS011;28293;50.930;3.464;2022-08-19T05:16:08;25.20;;;16.20;;
42682;SDS011;28293;50.930;3.464;2022-08-19T05:18:35;22.30;;;15.38;;
42682;SDS011;28293;50.930;3.464;2022-08-19T05:21:20;22.85;;;16.25;;
42682;SDS011;28293;50.930;3.464;2022-08-19T05:24:05;22.10;;;15.45;;
42682;SDS011;28293;50.930;3.464;2022-08-19T05:26:33;26.48;;;15.88;;
42682;SDS011;28293;50.930;3.464;2022-08-19T05:29:03;23.08;;;16.27;;
42682;SDS011;28293;50.930;3.464;2022-08-19T05:31:29;25.70;;;16.42;;
42682;SDS011;28293;50.930;3.464;2022-08-19T05:33:56;24.67;;;15.82;;
42682;SDS011;28293;50.930;3.464;2022-08-19T05:36:23;20.05;;;14.35;;
42682;SDS011;28293;50.930;3.464;2022-08-19T05:38:50;22.38;;;15.18;;
42682;SDS011;28293;50.930;3.464;2022-08-19T05:41:18;22.17;;;15.07;;
42682;SDS011;28293;50.930;3.464;2022-08-19T05:43:44;22.08;;;15.13;;
42682;SDS011;28293;50.930;3.464;2022-08-19T05:46:16;20.05;;;14.52;;
42682;SDS011;28293;50.930;3.464;2022-08-19T05:48:43;20.38;;;15.82;;
42682;SDS011;28293;50.930;3.464;2022-08-19T05:51:09;21.85;;;15.73;;
42682;SDS011;28293;50.930;3.464;2022-08-19T05:53:36;25.08;;;15.07;;
42682;SDS011;28293;50.930;3.464;2022-08-19T05:56:09;22.98;;;14.57;;
42682;SDS011;28293;50.930;3.464;2022-08-19T05:58:37;21.67;;;14.48;;
42682;SDS011;28293;50.930;3.464;2022-08-19T06:01:03;24.05;;;15.45;;
42682;SDS011;28293;50.930;3.464;2022-08-19T06:03:34;23.00;;;13.93;;
42682;SDS011;28293;50.930;3.464;2022-08-19T06:06:02;20.13;;;14.05;;
42682;SDS011;28293;50.930;3.464;2022-08-19T06:08:28;23.63;;;14.65;;
42682;SDS011;28293;50.930;3.464;2022-08-19T06:10:55;22.48;;;13.77;;
42682;SDS011;28293;50.930;3.464;2022-08-19T06:13:20;19.27;;;13.60;;
42682;SDS011;28293;50.930;3.464;2022-08-19T06:15:47;23.08;;;13.93;;
42682;SDS011;28293;50.930;3.464;2022-08-19T06:18:13;28.35;;;15.48;;
42682;SDS011;28293;50.930;3.464;2022-08-19T06:20:40;21.90;;;14.43;;
42682;SDS011;28293;50.930;3.464;2022-08-19T06:23:06;19.90;;;13.82;;
42682;SDS011;28293;50.930;3.464;2022-08-19T06:25:34;23.58;;;15.15;;
42682;SDS011;28293;50.930;3.464;2022-08-19T06:28:00;22.95;;;14.80;;
42682;SDS011;28293;50.930;3.464;2022-08-19T06:30:25;21.85;;;14.02;;
42682;SDS011;28293;50.930;3.464;2022-08-19T06:32:51;24.02;;;14.77;;
42682;SDS011;28293;50.930;3.464;2022-08-19T06:35:17;17.35;;;13.50;;
42682;SDS011;28293;50.930;3.464;2022-08-19T06:37:43;20.10;;;14.23;;
42682;SDS011;28293;50.930;3.464;2022-08-19T06:40:09;18.60;;;13.60;;
42682;SDS011;28293;50.930;3.464;2022-08-19T06:42:37;17.77;;;13.15;;
42682;SDS011;28293;50.930;3.464;2022-08-19T06:45:03;19.40;;;14.60;;
42682;SDS011;28293;50.930;3.464;2022-08-19T06:47:30;19.73;;;14.05;;
42682;SDS011;28293;50.930;3.464;2022-08-19T06:49:57;18.15;;;13.45;;
42682;SDS011;28293;50.930;3.464;2022-08-19T06:52:30;19.90;;;13.60;;
42682;SDS011;28293;50.930;3.464;2022-08-19T06:54:57;17.83;;;13.30;;
42682;SDS011;28293;50.930;3.464;2022-08-19T06:57:24;17.85;;;13.55;;
42682;SDS011;28293;50.930;3.464;2022-08-19T06:59:50;18.27;;;12.88;;
42682;SDS011;28293;50.930;3.464;2022-08-19T07:02:17;19.90;;;13.90;;
42682;SDS011;28293;50.930;3.464;2022-08-19T07:04:43;15.60;;;12.50;;
42682;SDS011;28293;50.930;3.464;2022-08-19T07:07:11;19.20;;;12.98;;
42682;SDS011;28293;50.930;3.464;2022-08-19T07:09:40;15.50;;;12.27;;
42682;SDS011;28293;50.930;3.464;2022-08-19T07:12:09;16.05;;;12.43;;
42682;SDS011;28293;50.930;3.464;2022-08-19T07:14:37;18.02;;;12.30;;
42682;SDS011;28293;50.930;3.464;2022-08-19T07:17:04;18.55;;;12.10;;
42682;SDS011;28293;50.930;3.464;2022-08-19T07:19:33;22.33;;;12.45;;
42682;SDS011;28293;50.930;3.464;2022-08-19T07:22:00;17.98;;;11.95;;
42682;SDS011;28293;50.930;3.464;2022-08-19T07:24:27;19.38;;;11.35;;
42682;SDS011;28293;50.930;3.464;2022-08-19T07:26:54;15.90;;;11.30;;
42682;SDS011;28293;50.930;3.464;2022-08-19T07:29:22;17.48;;;11.60;;
42682;SDS011;28293;50.930;3.464;2022-08-19T07:31:49;15.75;;;11.18;;
42682;SDS011;28293;50.930;3.464;2022-08-19T07:34:15;16.25;;;11.52;;
42682;SDS011;28293;50.930;3.464;2022-08-19T07:36:41;14.73;;;10.32;;
42682;SDS011;28293;50.930;3.464;2022-08-19T07:39:10;18.00;;;10.18;;
42682;SDS011;28293;50.930;3.464;2022-08-19T07:41:43;14.75;;;10.02;;
42682;SDS011;28293;50.930;3.464;2022-08-19T07:44:10;15.25;;;10.07;;
42682;SDS011;28293;50.930;3.464;2022-08-19T07:46:38;15.45;;;10.30;;
42682;SDS011;28293;50.930;3.464;2022-08-19T07:49:09;14.50;;;10.50;;
42682;SDS011;28293;50.930;3.464;2022-08-19T07:52:17;16.50;;;11.15;;
42682;SDS011;28293;50.930;3.464;2022-08-19T07:54:37;14.43;;;9.90;;
42682;SDS011;28293;50.930;3.464;2022-08-19T07:57:03;14.13;;;10.00;;
42682;SDS011;28293;50.930;3.464;2022-08-19T07:59:29;16.38;;;10.32;;
42682;SDS011;28293;50.930;3.464;2022-08-19T08:01:55;16.70;;;9.95;;
42682;SDS011;28293;50.930;3.464;2022-08-19T08:04:24;17.73;;;10.65;;
42682;SDS011;28293;50.930;3.464;2022-08-19T08:07:08;15.90;;;11.07;;
42682;SDS011;28293;50.930;3.464;2022-08-19T08:09:53;14.07;;;10.20;;
42682;SDS011;28293;50.930;3.464;2022-08-19T08:12:23;18.02;;;11.57;;
42682;SDS011;28293;50.930;3.464;2022-08-19T08:14:54;13.18;;;10.88;;
42682;SDS011;28293;50.930;3.464;2022-08-19T08:17:23;15.50;;;11.90;;
42682;SDS011;28293;50.930;3.464;2022-08-19T08:19:50;18.33;;;14.00;;
42682;SDS011;28293;50.930;3.464;2022-08-19T08:22:17;19.25;;;13.93;;
42682;SDS011;28293;50.930;3.464;2022-08-19T08:25:10;19.55;;;14.75;;
42682;SDS011;28293;50.930;3.464;2022-08-19T08:27:42;18.08;;;14.07;;
42682;SDS011;28293;50.930;3.464;2022-08-19T08:30:10;15.90;;;12.85;;
42682;SDS011;28293;50.930;3.464;2022-08-19T08:32:37;14.52;;;12.25;;
42682;SDS011;28293;50.930;3.464;2022-08-19T08:35:05;17.92;;;13.63;;
42682;SDS011;28293;50.930;3.464;2022-08-19T08:37:33;16.50;;;13.77;;
42682;SDS011;28293;50.930;3.464;2022-08-19T08:40:02;22.77;;;17.92;;
42682;SDS011;28293;50.930;3.464;2022-08-19T08:42:32;18.73;;;16.65;;
42682;SDS011;28293;50.930;3.464;2022-08-19T08:45:10;17.48;;;14.98;;
42682;SDS011;28293;50.930;3.464;2022-08-19T08:47:41;18.55;;;13.55;;
42682;SDS011;28293;50.930;3.464;2022-08-19T08:50:44;14.65;;;9.95;;
42682;SDS011;28293;50.930;3.464;2022-08-19T08:53:06;12.13;;;8.73;;
42682;SDS011;28293;50.930;3.464;2022-08-19T08:55:33;9.98;;;7.15;;
42682;SDS011;28293;50.930;3.464;2022-08-19T09:00:37;9.43;;;5.18;;
42682;SDS011;28293;50.930;3.464;2022-08-19T09:03:11;9.10;;;5.22;;
42682;SDS011;28293;50.930;3.464;2022-08-19T09:05:52;7.97;;;5.15;;
42682;SDS011;28293;50.930;3.464;2022-08-19T09:11:12;9.10;;;5.07;;
42682;SDS011;28293;50.930;3.464;2022-08-19T09:14:07;8.25;;;4.30;;
42682;SDS011;28293;50.930;3.464;2022-08-19T09:16:41;8.38;;;4.10;;
42682;SDS011;28293;50.930;3.464;2022-08-19T09:19:07;9.63;;;4.30;;
42682;SDS011;28293;50.930;3.464;2022-08-19T09:21:34;8.98;;;4.60;;
42682;SDS011;28293;50.930;3.464;2022-08-19T09:24:03;7.70;;;4.15;;
42682;SDS011;28293;50.930;3.464;2022-08-19T09:26:29;13.32;;;8.40;;
42682;SDS011;28293;50.930;3.464;2022-08-19T09:28:57;11.88;;;8.75;;
42682;SDS011;28293;50.930;3.464;2022-08-19T09:31:25;12.38;;;9.48;;
42682;SDS011;28293;50.930;3.464;2022-08-19T09:33:53;9.05;;;7.07;;
42682;SDS011;28293;50.930;3.464;2022-08-19T09:36:22;7.43;;;3.92;;
42682;SDS011;28293;50.930;3.464;2022-08-19T09:38:49;6.18;;;3.70;;
42682;SDS011;28293;50.930;3.464;2022-08-19T09:41:18;7.88;;;3.55;;
42682;SDS011;28293;50.930;3.464;2022-08-19T09:43:46;6.75;;;3.80;;
42682;SDS011;28293;50.930;3.464;2022-08-19T09:46:16;6.22;;;3.35;;
42682;SDS011;28293;50.930;3.464;2022-08-19T09:48:45;7.55;;;3.63;;
42682;SDS011;28293;50.930;3.464;2022-08-19T09:51:16;6.40;;;3.88;;
42682;SDS011;28293;50.930;3.464;2022-08-19T09:53:48;7.95;;;3.10;;
42682;SDS011;28293;50.930;3.464;2022-08-19T09:56:15;7.28;;;3.80;;
42682;SDS011;28293;50.930;3.464;2022-08-19T09:58:41;7.65;;;3.70;;
42682;SDS011;28293;50.930;3.464;2022-08-19T10:01:07;6.18;;;3.55;;
42682;SDS011;28293;50.930;3.464;2022-08-19T10:03:35;7.90;;;3.17;;
42682;SDS011;28293;50.930;3.464;2022-08-19T10:06:02;6.78;;;3.20;;
42682;SDS011;28293;50.930;3.464;2022-08-19T10:08:31;6.72;;;3.28;;
42682;SDS011;28293;50.930;3.464;2022-08-19T10:11:00;5.78;;;2.92;;
42682;SDS011;28293;50.930;3.464;2022-08-19T10:13:28;4.45;;;2.72;;
42682;SDS011;28293;50.930;3.464;2022-08-19T10:16:02;7.40;;;2.80;;
42682;SDS011;28293;50.930;3.464;2022-08-19T10:18:31;7.35;;;2.70;;
42682;SDS011;28293;50.930;3.464;2022-08-19T10:21:10;7.32;;;2.30;;
42682;SDS011;28293;50.930;3.464;2022-08-19T10:23:39;5.55;;;2.30;;
42682;SDS011;28293;50.930;3.464;2022-08-19T10:26:10;4.10;;;1.80;;
42682;SDS011;28293;50.930;3.464;2022-08-19T10:28:37;4.75;;;1.88;;
42682;SDS011;28293;50.930;3.464;2022-08-19T10:31:13;5.68;;;2.20;;
42682;SDS011;28293;50.930;3.464;2022-08-19T10:33:42;7.47;;;2.10;;
42682;SDS011;28293;50.930;3.464;2022-08-19T10:36:13;5.25;;;1.90;;
42682;SDS011;28293;50.930;3.464;2022-08-19T10:38:42;3.72;;;1.63;;
42682;SDS011;28293;50.930;3.464;2022-08-19T10:41:14;2.70;;;1.65;;
42682;SDS011;28293;50.930;3.464;2022-08-19T10:43:42;4.03;;;1.75;;
42682;SDS011;28293;50.930;3.464;2022-08-19T10:46:10;2.47;;;1.48;;
42682;SDS011;28293;50.930;3.464;2022-08-19T10:48:38;5.40;;;1.70;;
42682;SDS011;28293;50.930;3.464;2022-08-19T10:51:04;2.80;;;1.50;;
42682;SDS011;28293;50.930;3.464;2022-08-19T10:53:49;3.15;;;1.83;;
42682;SDS011;28293;50.930;3.464;2022-08-19T10:56:15;4.35;;;1.58;;
42682;SDS011;28293;50.930;3.464;2022-08-19T10:59:00;3.97;;;2.03;;
42682;SDS011;28293;50.930;3.464;2022-08-19T11:01:27;5.72;;;2.10;;
42682;SDS011;28293;50.930;3.464;2022-08-19T11:03:54;4.53;;;2.80;;
42682;SDS011;28293;50.930;3.464;2022-08-19T11:06:22;5.60;;;2.75;;
42682;SDS011;28293;50.930;3.464;2022-08-19T11:08:50;5.10;;;2.85;;
42682;SDS011;28293;50.930;3.464;2022-08-19T11:11:16;5.07;;;2.80;;
42682;SDS011;28293;50.930;3.464;2022-08-19T11:13:42;5.88;;;2.70;;
42682;SDS011;28293;50.930;3.464;2022-08-19T11:16:12;6.40;;;3.28;;
42682;SDS011;28293;50.930;3.464;2022-08-19T11:18:41;6.18;;;2.88;;
42682;SDS011;28293;50.930;3.464;2022-08-19T11:21:14;6.35;;;2.90;;
42682;SDS011;28293;50.930;3.464;2022-08-19T11:23:42;7.32;;;3.28;;
42682;SDS011;28293;50.930;3.464;2022-08-19T11:26:09;7.10;;;3.13;;
42682;SDS011;28293;50.930;3.464;2022-08-19T11:28:35;5.80;;;3.00;;
42682;SDS011;28293;50.930;3.464;2022-08-19T11:31:01;5.82;;;2.42;;
42682;SDS011;28293;50.930;3.464;2022-08-19T11:33:28;6.63;;;2.58;;
42682;SDS011;28293;50.930;3.464;2022-08-19T11:35:57;4.22;;;2.33;;
42682;SDS011;28293;50.930;3.464;2022-08-19T11:38:24;6.57;;;2.40;;
42682;SDS011;28293;50.930;3.464;2022-08-19T11:41:00;8.48;;;2.35;;
42682;SDS011;28293;50.930;3.464;2022-08-19T11:43:28;6.50;;;2.28;;
42682;SDS011;28293;50.930;3.464;2022-08-19T11:45:54;5.88;;;2.25;;
42682;SDS011;28293;50.930;3.464;2022-08-19T11:48:21;6.38;;;2.10;;
42682;SDS011;28293;50.930;3.464;2022-08-19T11:50:51;6.55;;;1.90;;
42682;SDS011;28293;50.930;3.464;2022-08-19T11:53:19;7.50;;;2.35;;
42682;SDS011;28293;50.930;3.464;2022-08-19T11:55:46;6.90;;;2.33;;
42682;SDS011;28293;50.930;3.464;2022-08-19T11:58:13;5.10;;;2.22;;
42682;SDS011;28293;50.930;3.464;2022-08-19T12:00:40;6.32;;;2.28;;
42682;SDS011;28293;50.930;3.464;2022-08-19T12:03:06;10.90;;;3.03;;
42682;SDS011;28293;50.930;3.464;2022-08-19T12:05:32;5.45;;;2.20;;
42682;SDS011;28293;50.930;3.464;2022-08-19T12:07:58;5.40;;;2.05;;
42682;SDS011;28293;50.930;3.464;2022-08-19T12:10:23;5.15;;;2.33;;
42682;SDS011;28293;50.930;3.464;2022-08-19T12:12:49;5.32;;;1.92;;
42682;SDS011;28293;50.930;3.464;2022-08-19T12:15:16;4.65;;;2.03;;
42682;SDS011;28293;50.930;3.464;2022-08-19T12:17:42;5.57;;;2.08;;
42682;SDS011;28293;50.930;3.464;2022-08-19T12:20:08;5.50;;;1.92;;
42682;SDS011;28293;50.930;3.464;2022-08-19T12:22:35;6.40;;;2.10;;
42682;SDS011;28293;50.930;3.464;2022-08-19T12:25:02;5.13;;;1.95;;
42682;SDS011;28293;50.930;3.464;2022-08-19T12:27:29;3.88;;;1.60;;
42682;SDS011;28293;50.930;3.464;2022-08-19T12:29:55;5.80;;;1.90;;
42682;SDS011;28293;50.930;3.464;2022-08-19T12:32:22;4.75;;;1.83;;
42682;SDS011;28293;50.930;3.464;2022-08-19T12:34:48;5.65;;;1.70;;
42682;SDS011;28293;50.930;3.464;2022-08-19T12:37:14;5.30;;;1.38;;
42682;SDS011;28293;50.930;3.464;2022-08-19T12:39:40;3.83;;;1.50;;
42682;SDS011;28293;50.930;3.464;2022-08-19T12:42:07;5.90;;;2.22;;
42682;SDS011;28293;50.930;3.464;2022-08-19T12:44:35;7.78;;;2.88;;
42682;SDS011;28293;50.930;3.464;2022-08-19T12:47:02;15.35;;;3.22;;
42682;SDS011;28293;50.930;3.464;2022-08-19T12:49:29;8.27;;;3.42;;
42682;SDS011;28293;50.930;3.464;2022-08-19T12:51:58;8.65;;;3.53;;
42682;SDS011;28293;50.930;3.464;2022-08-19T12:54:25;7.35;;;3.50;;
42682;SDS011;28293;50.930;3.464;2022-08-19T12:56:51;7.95;;;4.60;;
42682;SDS011;28293;50.930;3.464;2022-08-19T12:59:17;9.63;;;4.65;;
42682;SDS011;28293;50.930;3.464;2022-08-19T13:01:44;9.85;;;4.28;;
42682;SDS011;28293;50.930;3.464;2022-08-19T13:04:10;7.60;;;3.20;;
42682;SDS011;28293;50.930;3.464;2022-08-19T13:06:36;6.63;;;2.80;;
42682;SDS011;28293;50.930;3.464;2022-08-19T13:09:02;7.50;;;3.25;;
42682;SDS011;28293;50.930;3.464;2022-08-19T13:11:29;6.82;;;2.75;;
42682;SDS011;28293;50.930;3.464;2022-08-19T13:13:59;6.80;;;2.50;;
42682;SDS011;28293;50.930;3.464;2022-08-19T13:16:26;6.13;;;2.45;;
42682;SDS011;28293;50.930;3.464;2022-08-19T13:18:52;8.60;;;3.00;;
42682;SDS011;28293;50.930;3.464;2022-08-19T13:21:19;8.73;;;3.30;;
42682;SDS011;28293;50.930;3.464;2022-08-19T13:23:47;7.20;;;2.95;;
42682;SDS011;28293;50.930;3.464;2022-08-19T13:26:14;10.60;;;3.42;;
42682;SDS011;28293;50.930;3.464;2022-08-19T13:28:41;7.85;;;3.33;;
42682;SDS011;28293;50.930;3.464;2022-08-19T13:31:28;10.10;;;3.60;;
42682;SDS011;28293;50.930;3.464;2022-08-19T13:34:14;9.35;;;3.17;;
42682;SDS011;28293;50.930;3.464;2022-08-19T13:36:41;10.90;;;3.90;;
42682;SDS011;28293;50.930;3.464;2022-08-19T13:39:06;7.22;;;3.15;;
42682;SDS011;28293;50.930;3.464;2022-08-19T13:41:33;11.32;;;3.45;;
42682;SDS011;28293;50.930;3.464;2022-08-19T13:43:59;7.90;;;3.55;;
42682;SDS011;28293;50.930;3.464;2022-08-19T13:46:26;10.85;;;3.70;;
42682;SDS011;28293;50.930;3.464;2022-08-19T13:48:54;7.30;;;3.30;;
42682;SDS011;28293;50.930;3.464;2022-08-19T13:51:20;8.57;;;3.45;;
42682;SDS011;28293;50.930;3.464;2022-08-19T13:53:45;7.35;;;2.67;;
42682;SDS011;28293;50.930;3.464;2022-08-19T13:56:13;5.55;;;2.53;;
42682;SDS011;28293;50.930;3.464;2022-08-19T13:58:41;7.15;;;2.58;;
42682;SDS011;28293;50.930;3.464;2022-08-19T14:01:08;8.93;;;4.57;;
42682;SDS011;28293;50.930;3.464;2022-08-19T14:03:35;9.13;;;4.13;;
42682;SDS011;28293;50.930;3.464;2022-08-19T14:06:01;8.50;;;3.70;;
42682;SDS011;28293;50.930;3.464;2022-08-19T14:08:27;10.13;;;4.88;;
42682;SDS011;28293;50.930;3.464;2022-08-19T14:10:54;9.30;;;4.45;;
42682;SDS011;28293;50.930;3.464;2022-08-19T14:13:21;9.35;;;4.07;;
42682;SDS011;28293;50.930;3.464;2022-08-19T14:15:47;11.00;;;4.72;;
42682;SDS011;28293;50.930;3.464;2022-08-19T14:18:14;12.65;;;4.10;;
42682;SDS011;28293;50.930;3.464;2022-08-19T14:20:41;12.98;;;4.68;;
42682;SDS011;28293;50.930;3.464;2022-08-19T14:23:07;9.07;;;4.20;;
42682;SDS011;28293;50.930;3.464;2022-08-19T14:25:33;9.52;;;4.53;;
42682;SDS011;28293;50.930;3.464;2022-08-19T14:27:59;7.57;;;3.80;;
42682;SDS011;28293;50.930;3.464;2022-08-19T14:30:32;8.68;;;4.38;;
42682;SDS011;28293;50.930;3.464;2022-08-19T14:33:02;11.73;;;3.80;;
42682;SDS011;28293;50.930;3.464;2022-08-19T14:35:30;9.60;;;3.00;;
42682;SDS011;28293;50.930;3.464;2022-08-19T14:37:59;7.07;;;2.90;;
42682;SDS011;28293;50.930;3.464;2022-08-19T14:40:26;6.35;;;2.63;;
42682;SDS011;28293;50.930;3.464;2022-08-19T14:42:54;8.20;;;2.20;;
42682;SDS011;28293;50.930;3.464;2022-08-19T14:45:25;5.68;;;1.98;;
42682;SDS011;28293;50.930;3.464;2022-08-19T14:47:54;6.70;;;1.60;;
42682;SDS011;28293;50.930;3.464;2022-08-19T14:50:20;6.18;;;1.45;;